sensor_id;sensor_type;location;lat;lon;timestamp;P1;durP1;ratioP1;P2;durP2;ratioP2
21569;SDS011;57598;50.888;4.746;2023-04-25T00:01:28;45.47;;;42.38;;
21569;SDS011;57598;50.888;4.746;2023-04-25T00:03:57;47.00;;;43.70;;
21569;SDS011;57598;50.888;4.746;2023-04-25T00:06:24;46.97;;;43.67;;
21569;SDS011;57598;50.888;4.746;2023-04-25T00:08:51;46.25;;;43.05;;
21569;SDS011;57598;50.888;4.746;2023-04-25T00:11:19;48.13;;;44.83;;
21569;SDS011;57598;50.888;4.746;2023-04-25T00:13:47;47.28;;;43.97;;
21569;SDS011;57598;50.888;4.746;2023-04-25T00:16:14;45.72;;;42.53;;
21569;SDS011;57598;50.888;4.746;2023-04-25T00:18:42;45.35;;;42.15;;
21569;SDS011;57598;50.888;4.746;2023-04-25T00:21:11;44.78;;;41.67;;
21569;SDS011;57598;50.888;4.746;2023-04-25T00:23:38;45.72;;;42.53;;
21569;SDS011;57598;50.888;4.746;2023-04-25T00:26:06;46.80;;;43.45;;
21569;SDS011;57598;50.888;4.746;2023-04-25T00:28:33;46.60;;;43.40;;
21569;SDS011;57598;50.888;4.746;2023-04-25T00:31:01;47.90;;;44.60;;
21569;SDS011;57598;50.888;4.746;2023-04-25T00:33:38;46.85;;;43.65;;
21569;SDS011;57598;50.888;4.746;2023-04-25T00:36:11;46.95;;;43.75;;
21569;SDS011;57598;50.888;4.746;2023-04-25T00:38:39;45.30;;;42.10;;
21569;SDS011;57598;50.888;4.746;2023-04-25T00:41:07;44.67;;;41.58;;
21569;SDS011;57598;50.888;4.746;2023-04-25T00:43:34;46.78;;;43.58;;
21569;SDS011;57598;50.888;4.746;2023-04-25T00:46:04;47.85;;;44.45;;
21569;SDS011;57598;50.888;4.746;2023-04-25T00:48:31;45.67;;;42.47;;
21569;SDS011;57598;50.888;4.746;2023-04-25T00:51:00;46.95;;;43.75;;
21569;SDS011;57598;50.888;4.746;2023-04-25T00:53:43;46.75;;;43.55;;
21569;SDS011;57598;50.888;4.746;2023-04-25T00:56:11;46.20;;;43.10;;
21569;SDS011;57598;50.888;4.746;2023-04-25T00:58:39;49.40;;;45.50;;
21569;SDS011;57598;50.888;4.746;2023-04-25T01:01:09;47.00;;;43.80;;
21569;SDS011;57598;50.888;4.746;2023-04-25T01:03:38;49.45;;;45.25;;
21569;SDS011;57598;50.888;4.746;2023-04-25T01:06:07;46.25;;;43.05;;
21569;SDS011;57598;50.888;4.746;2023-04-25T01:08:35;49.03;;;45.55;;
21569;SDS011;57598;50.888;4.746;2023-04-25T01:11:03;50.03;;;46.63;;
21569;SDS011;57598;50.888;4.746;2023-04-25T01:13:31;48.80;;;45.40;;
21569;SDS011;57598;50.888;4.746;2023-04-25T01:15:58;50.60;;;47.10;;
21569;SDS011;57598;50.888;4.746;2023-04-25T01:18:28;51.05;;;47.45;;
21569;SDS011;57598;50.888;4.746;2023-04-25T01:20:55;53.28;;;49.47;;
21569;SDS011;57598;50.888;4.746;2023-04-25T01:23:25;53.88;;;49.97;;
21569;SDS011;57598;50.888;4.746;2023-04-25T01:25:54;55.95;;;51.95;;
21569;SDS011;57598;50.888;4.746;2023-04-25T01:28:21;57.65;;;53.55;;
21569;SDS011;57598;50.888;4.746;2023-04-25T01:30:49;58.92;;;54.70;;
21569;SDS011;57598;50.888;4.746;2023-04-25T01:33:17;58.22;;;54.03;;
21569;SDS011;57598;50.888;4.746;2023-04-25T01:35:47;59.00;;;54.70;;
21569;SDS011;57598;50.888;4.746;2023-04-25T01:38:14;59.53;;;55.20;;
21569;SDS011;57598;50.888;4.746;2023-04-25T01:40:42;63.33;;;58.72;;
21569;SDS011;57598;50.888;4.746;2023-04-25T01:43:11;62.17;;;57.60;;
21569;SDS011;57598;50.888;4.746;2023-04-25T01:45:39;61.67;;;57.08;;
21569;SDS011;57598;50.888;4.746;2023-04-25T01:48:07;63.80;;;58.85;;
21569;SDS011;57598;50.888;4.746;2023-04-25T01:50:34;64.30;;;59.50;;
21569;SDS011;57598;50.888;4.746;2023-04-25T01:53:01;65.07;;;60.20;;
21569;SDS011;57598;50.888;4.746;2023-04-25T01:55:28;63.78;;;58.88;;
21569;SDS011;57598;50.888;4.746;2023-04-25T01:57:57;62.17;;;57.42;;
21569;SDS011;57598;50.888;4.746;2023-04-25T02:00:25;64.05;;;59.15;;
21569;SDS011;57598;50.888;4.746;2023-04-25T02:02:52;63.50;;;58.60;;
21569;SDS011;57598;50.888;4.746;2023-04-25T02:05:19;63.63;;;58.63;;
21569;SDS011;57598;50.888;4.746;2023-04-25T02:07:47;61.92;;;57.13;;
21569;SDS011;57598;50.888;4.746;2023-04-25T02:10:14;61.72;;;56.92;;
21569;SDS011;57598;50.888;4.746;2023-04-25T02:12:41;61.95;;;57.20;;
21569;SDS011;57598;50.888;4.746;2023-04-25T02:15:10;62.60;;;57.90;;
21569;SDS011;57598;50.888;4.746;2023-04-25T02:17:37;62.22;;;57.47;;
21569;SDS011;57598;50.888;4.746;2023-04-25T02:20:05;65.13;;;59.63;;
21569;SDS011;57598;50.888;4.746;2023-04-25T02:22:32;61.97;;;57.17;;
21569;SDS011;57598;50.888;4.746;2023-04-25T02:25:00;60.67;;;56.00;;
21569;SDS011;57598;50.888;4.746;2023-04-25T02:27:29;61.22;;;56.53;;
21569;SDS011;57598;50.888;4.746;2023-04-25T02:29:56;61.05;;;56.35;;
21569;SDS011;57598;50.888;4.746;2023-04-25T02:32:25;63.78;;;58.90;;
21569;SDS011;57598;50.888;4.746;2023-04-25T02:34:52;61.67;;;57.08;;
21569;SDS011;57598;50.888;4.746;2023-04-25T02:37:19;61.85;;;57.15;;
21569;SDS011;57598;50.888;4.746;2023-04-25T02:39:46;63.13;;;58.42;;
21569;SDS011;57598;50.888;4.746;2023-04-25T02:42:13;61.10;;;56.50;;
21569;SDS011;57598;50.888;4.746;2023-04-25T02:44:41;63.55;;;58.78;;
21569;SDS011;57598;50.888;4.746;2023-04-25T02:47:08;64.03;;;59.33;;
21569;SDS011;57598;50.888;4.746;2023-04-25T02:49:37;63.17;;;58.58;;
21569;SDS011;57598;50.888;4.746;2023-04-25T02:52:04;64.40;;;59.60;;
21569;SDS011;57598;50.888;4.746;2023-04-25T02:54:31;62.88;;;58.17;;
21569;SDS011;57598;50.888;4.746;2023-04-25T02:56:58;60.97;;;56.38;;
21569;SDS011;57598;50.888;4.746;2023-04-25T02:59:26;59.55;;;55.00;;
21569;SDS011;57598;50.888;4.746;2023-04-25T03:01:53;59.72;;;55.22;;
21569;SDS011;57598;50.888;4.746;2023-04-25T03:04:19;61.38;;;56.78;;
21569;SDS011;57598;50.888;4.746;2023-04-25T03:06:50;59.50;;;55.00;;
21569;SDS011;57598;50.888;4.746;2023-04-25T03:09:17;58.88;;;54.38;;
21569;SDS011;57598;50.888;4.746;2023-04-25T03:11:45;60.15;;;55.45;;
21569;SDS011;57598;50.888;4.746;2023-04-25T03:14:14;63.03;;;58.28;;
21569;SDS011;57598;50.888;4.746;2023-04-25T03:16:43;67.22;;;60.85;;
21569;SDS011;57598;50.888;4.746;2023-04-25T03:19:13;59.05;;;54.45;;
21569;SDS011;57598;50.888;4.746;2023-04-25T03:21:43;60.13;;;55.47;;
21569;SDS011;57598;50.888;4.746;2023-04-25T03:24:12;58.08;;;53.45;;
21569;SDS011;57598;50.888;4.746;2023-04-25T03:26:39;60.88;;;56.28;;
21569;SDS011;57598;50.888;4.746;2023-04-25T03:29:06;58.35;;;53.80;;
21569;SDS011;57598;50.888;4.746;2023-04-25T03:31:34;61.03;;;56.53;;
21569;SDS011;57598;50.888;4.746;2023-04-25T03:34:05;58.55;;;53.85;;
21569;SDS011;57598;50.888;4.746;2023-04-25T03:36:32;57.72;;;53.13;;
21569;SDS011;57598;50.888;4.746;2023-04-25T03:38:59;58.65;;;54.15;;
21569;SDS011;57598;50.888;4.746;2023-04-25T03:41:28;59.22;;;54.17;;
21569;SDS011;57598;50.888;4.746;2023-04-25T03:43:55;58.53;;;54.00;;
21569;SDS011;57598;50.888;4.746;2023-04-25T03:46:22;63.03;;;57.97;;
21569;SDS011;57598;50.888;4.746;2023-04-25T03:48:49;59.42;;;54.83;;
21569;SDS011;57598;50.888;4.746;2023-04-25T03:51:16;54.78;;;50.42;;
21569;SDS011;57598;50.888;4.746;2023-04-25T03:53:43;58.20;;;53.70;;
21569;SDS011;57598;50.888;4.746;2023-04-25T03:56:10;57.80;;;53.20;;
21569;SDS011;57598;50.888;4.746;2023-04-25T03:58:39;56.70;;;52.17;;
21569;SDS011;57598;50.888;4.746;2023-04-25T04:01:06;59.45;;;54.95;;
21569;SDS011;57598;50.888;4.746;2023-04-25T04:03:33;61.58;;;56.78;;
21569;SDS011;57598;50.888;4.746;2023-04-25T04:06:01;59.97;;;55.38;;
21569;SDS011;57598;50.888;4.746;2023-04-25T04:08:29;57.83;;;53.42;;
21569;SDS011;57598;50.888;4.746;2023-04-25T04:10:56;59.90;;;55.60;;
21569;SDS011;57598;50.888;4.746;2023-04-25T04:13:25;57.60;;;53.20;;
21569;SDS011;57598;50.888;4.746;2023-04-25T04:15:54;56.45;;;52.25;;
21569;SDS011;57598;50.888;4.746;2023-04-25T04:18:22;57.78;;;53.47;;
21569;SDS011;57598;50.888;4.746;2023-04-25T04:20:49;58.20;;;53.90;;
21569;SDS011;57598;50.888;4.746;2023-04-25T04:23:16;58.53;;;54.13;;
21569;SDS011;57598;50.888;4.746;2023-04-25T04:25:44;57.20;;;52.80;;
21569;SDS011;57598;50.888;4.746;2023-04-25T04:28:12;55.35;;;51.00;;
21569;SDS011;57598;50.888;4.746;2023-04-25T04:30:39;58.97;;;54.30;;
21569;SDS011;57598;50.888;4.746;2023-04-25T04:33:09;57.63;;;53.13;;
21569;SDS011;57598;50.888;4.746;2023-04-25T04:35:36;58.10;;;53.70;;
21569;SDS011;57598;50.888;4.746;2023-04-25T04:38:03;56.97;;;52.58;;
21569;SDS011;57598;50.888;4.746;2023-04-25T04:40:32;58.33;;;53.83;;
21569;SDS011;57598;50.888;4.746;2023-04-25T04:43:10;59.28;;;54.88;;
21569;SDS011;57598;50.888;4.746;2023-04-25T04:45:41;56.65;;;52.20;;
21569;SDS011;57598;50.888;4.746;2023-04-25T04:48:13;57.22;;;52.92;;
21569;SDS011;57598;50.888;4.746;2023-04-25T04:50:42;58.60;;;54.10;;
21569;SDS011;57598;50.888;4.746;2023-04-25T04:53:29;62.90;;;57.78;;
21569;SDS011;57598;50.888;4.746;2023-04-25T04:55:57;56.30;;;51.80;;
21569;SDS011;57598;50.888;4.746;2023-04-25T04:58:25;56.65;;;52.15;;
21569;SDS011;57598;50.888;4.746;2023-04-25T05:00:56;57.70;;;53.00;;
21569;SDS011;57598;50.888;4.746;2023-04-25T05:03:30;58.05;;;53.65;;
21569;SDS011;57598;50.888;4.746;2023-04-25T05:05:57;58.88;;;54.38;;
21569;SDS011;57598;50.888;4.746;2023-04-25T05:08:25;60.03;;;55.47;;
21569;SDS011;57598;50.888;4.746;2023-04-25T05:14:45;57.47;;;52.97;;
21569;SDS011;57598;50.888;4.746;2023-04-25T05:17:13;57.03;;;52.53;;
21569;SDS011;57598;50.888;4.746;2023-04-25T05:19:42;60.55;;;55.88;;
21569;SDS011;57598;50.888;4.746;2023-04-25T05:22:09;56.33;;;51.92;;
21569;SDS011;57598;50.888;4.746;2023-04-25T05:28:12;58.38;;;53.65;;
21569;SDS011;57598;50.888;4.746;2023-04-25T05:30:50;58.50;;;53.92;;
21569;SDS011;57598;50.888;4.746;2023-04-25T06:47:54;56.83;;;52.55;;
21569;SDS011;57598;50.888;4.746;2023-04-25T06:50:21;51.70;;;47.67;;
21569;SDS011;57598;50.888;4.746;2023-04-25T06:52:48;52.25;;;48.40;;
21569;SDS011;57598;50.888;4.746;2023-04-25T06:55:15;55.42;;;51.13;;
21569;SDS011;57598;50.888;4.746;2023-04-25T06:57:42;52.65;;;48.80;;
21569;SDS011;57598;50.888;4.746;2023-04-25T07:00:10;51.60;;;47.70;;
21569;SDS011;57598;50.888;4.746;2023-04-25T07:02:37;52.85;;;48.80;;
21569;SDS011;57598;50.888;4.746;2023-04-25T07:05:07;49.28;;;45.45;;
21569;SDS011;57598;50.888;4.746;2023-04-25T07:07:34;49.42;;;45.83;;
21569;SDS011;57598;50.888;4.746;2023-04-25T07:10:01;48.03;;;44.53;;
21569;SDS011;57598;50.888;4.746;2023-04-25T07:12:28;47.55;;;44.15;;
21569;SDS011;57598;50.888;4.746;2023-04-25T07:14:55;46.42;;;43.13;;
21569;SDS011;57598;50.888;4.746;2023-04-25T07:17:22;46.60;;;43.10;;
21569;SDS011;57598;50.888;4.746;2023-04-25T07:19:49;48.60;;;43.55;;
21569;SDS011;57598;50.888;4.746;2023-04-25T07:22:17;44.88;;;41.67;;
21569;SDS011;57598;50.888;4.746;2023-04-25T07:24:44;48.65;;;44.88;;
21569;SDS011;57598;50.888;4.746;2023-04-25T07:27:13;47.10;;;43.60;;
21569;SDS011;57598;50.888;4.746;2023-04-25T07:29:40;49.72;;;45.50;;
21569;SDS011;57598;50.888;4.746;2023-04-25T07:32:07;48.22;;;44.83;;
21569;SDS011;57598;50.888;4.746;2023-04-25T07:34:37;47.40;;;43.92;;
21569;SDS011;57598;50.888;4.746;2023-04-25T07:37:04;44.20;;;41.00;;
21569;SDS011;57598;50.888;4.746;2023-04-25T07:39:32;45.35;;;42.15;;
21569;SDS011;57598;50.888;4.746;2023-04-25T07:42:00;43.08;;;39.97;;
21569;SDS011;57598;50.888;4.746;2023-04-25T07:44:27;42.88;;;39.97;;
21569;SDS011;57598;50.888;4.746;2023-04-25T07:46:55;40.13;;;37.33;;
21569;SDS011;57598;50.888;4.746;2023-04-25T07:49:22;39.47;;;36.67;;
21569;SDS011;57598;50.888;4.746;2023-04-25T07:51:49;39.08;;;36.38;;
21569;SDS011;57598;50.888;4.746;2023-04-25T07:54:16;39.90;;;35.85;;
21569;SDS011;57598;50.888;4.746;2023-04-25T07:56:45;39.47;;;36.58;;
21569;SDS011;57598;50.888;4.746;2023-04-25T07:59:12;38.75;;;35.38;;
21569;SDS011;57598;50.888;4.746;2023-04-25T08:01:39;37.15;;;33.88;;
21569;SDS011;57598;50.888;4.746;2023-04-25T08:04:06;37.10;;;34.60;;
21569;SDS011;57598;50.888;4.746;2023-04-25T08:06:33;39.80;;;36.70;;
21569;SDS011;57598;50.888;4.746;2023-04-25T08:09:00;35.40;;;33.10;;
21569;SDS011;57598;50.888;4.746;2023-04-25T08:11:33;38.05;;;35.35;;
21569;SDS011;57598;50.888;4.746;2023-04-25T08:14:02;37.70;;;34.90;;
21569;SDS011;57598;50.888;4.746;2023-04-25T08:16:29;36.15;;;33.90;;
21569;SDS011;57598;50.888;4.746;2023-04-25T08:18:56;44.25;;;37.80;;
21569;SDS011;57598;50.888;4.746;2023-04-25T08:21:23;37.40;;;35.00;;
21569;SDS011;57598;50.888;4.746;2023-04-25T08:23:50;36.03;;;33.78;;
21569;SDS011;57598;50.888;4.746;2023-04-25T08:26:18;37.33;;;34.25;;
21569;SDS011;57598;50.888;4.746;2023-04-25T08:28:45;40.17;;;36.55;;
21569;SDS011;57598;50.888;4.746;2023-04-25T08:31:14;37.42;;;34.95;;
21569;SDS011;57598;50.888;4.746;2023-04-25T08:33:41;36.33;;;34.13;;
21569;SDS011;57598;50.888;4.746;2023-04-25T08:36:09;37.92;;;35.42;;
21569;SDS011;57598;50.888;4.746;2023-04-25T08:38:36;37.20;;;34.90;;
21569;SDS011;57598;50.888;4.746;2023-04-25T08:41:03;36.80;;;34.40;;
21569;SDS011;57598;50.888;4.746;2023-04-25T08:43:31;36.92;;;34.53;;
21569;SDS011;57598;50.888;4.746;2023-04-25T08:45:59;38.40;;;35.47;;
21569;SDS011;57598;50.888;4.746;2023-04-25T08:48:28;41.08;;;37.30;;
21569;SDS011;57598;50.888;4.746;2023-04-25T08:50:58;38.10;;;35.60;;
21569;SDS011;57598;50.888;4.746;2023-04-25T08:53:33;37.05;;;34.65;;
21569;SDS011;57598;50.888;4.746;2023-04-25T08:56:00;37.00;;;34.60;;
21569;SDS011;57598;50.888;4.746;2023-04-25T08:58:28;36.10;;;33.70;;
21569;SDS011;57598;50.888;4.746;2023-04-25T09:00:55;38.28;;;35.72;;
21569;SDS011;57598;50.888;4.746;2023-04-25T09:03:22;38.35;;;35.28;;
21569;SDS011;57598;50.888;4.746;2023-04-25T09:05:50;38.97;;;36.08;;
21569;SDS011;57598;50.888;4.746;2023-04-25T09:08:18;36.10;;;33.28;;
21569;SDS011;57598;50.888;4.746;2023-04-25T09:10:45;34.28;;;32.17;;
21569;SDS011;57598;50.888;4.746;2023-04-25T09:13:13;34.75;;;31.92;;
21569;SDS011;57598;50.888;4.746;2023-04-25T09:15:47;31.65;;;29.75;;
21569;SDS011;57598;50.888;4.746;2023-04-25T09:18:24;27.10;;;25.30;;
21569;SDS011;57598;50.888;4.746;2023-04-25T09:20:53;24.25;;;22.17;;
21569;SDS011;57598;50.888;4.746;2023-04-25T09:23:21;21.48;;;20.27;;
21569;SDS011;57598;50.888;4.746;2023-04-25T09:25:49;20.65;;;19.45;;
21569;SDS011;57598;50.888;4.746;2023-04-25T09:28:22;21.70;;;19.77;;
21569;SDS011;57598;50.888;4.746;2023-04-25T09:33:21;19.55;;;18.42;;
21569;SDS011;57598;50.888;4.746;2023-04-25T09:36:01;22.33;;;20.30;;
21569;SDS011;57598;50.888;4.746;2023-04-25T09:38:29;20.95;;;19.35;;
21569;SDS011;57598;50.888;4.746;2023-04-25T09:40:57;20.55;;;19.35;;
21569;SDS011;57598;50.888;4.746;2023-04-25T09:43:25;20.27;;;18.98;;
21569;SDS011;57598;50.888;4.746;2023-04-25T09:45:58;21.27;;;19.85;;
21569;SDS011;57598;50.888;4.746;2023-04-25T09:48:26;20.33;;;19.13;;
21569;SDS011;57598;50.888;4.746;2023-04-25T09:51:05;20.83;;;19.30;;
21569;SDS011;57598;50.888;4.746;2023-04-25T09:53:36;21.15;;;19.38;;
21569;SDS011;57598;50.888;4.746;2023-04-25T09:56:05;24.58;;;20.63;;
21569;SDS011;57598;50.888;4.746;2023-04-25T09:58:33;21.58;;;20.27;;
21569;SDS011;57598;50.888;4.746;2023-04-25T10:01:02;20.40;;;19.20;;
21569;SDS011;57598;50.888;4.746;2023-04-25T10:03:32;22.90;;;21.15;;
21569;SDS011;57598;50.888;4.746;2023-04-25T10:06:01;20.92;;;19.73;;
21569;SDS011;57598;50.888;4.746;2023-04-25T10:08:31;21.05;;;19.85;;
21569;SDS011;57598;50.888;4.746;2023-04-25T10:11:00;20.90;;;19.70;;
21569;SDS011;57598;50.888;4.746;2023-04-25T10:13:28;21.20;;;19.90;;
21569;SDS011;57598;50.888;4.746;2023-04-25T10:15:59;20.20;;;19.10;;
21569;SDS011;57598;50.888;4.746;2023-04-25T10:18:27;20.75;;;19.55;;
21569;SDS011;57598;50.888;4.746;2023-04-25T10:20:55;22.10;;;20.60;;
21569;SDS011;57598;50.888;4.746;2023-04-25T10:23:24;20.60;;;19.40;;
21569;SDS011;57598;50.888;4.746;2023-04-25T10:25:53;22.52;;;20.48;;
21569;SDS011;57598;50.888;4.746;2023-04-25T10:28:21;21.25;;;19.95;;
21569;SDS011;57598;50.888;4.746;2023-04-25T10:30:57;21.20;;;19.90;;
21569;SDS011;57598;50.888;4.746;2023-04-25T10:33:35;18.85;;;17.75;;
21569;SDS011;57598;50.888;4.746;2023-04-25T10:36:10;19.33;;;18.23;;
21569;SDS011;57598;50.888;4.746;2023-04-25T10:38:38;18.98;;;17.73;;
21569;SDS011;57598;50.888;4.746;2023-04-25T10:41:07;17.95;;;16.95;;
21569;SDS011;57598;50.888;4.746;2023-04-25T10:43:39;18.58;;;16.92;;
21569;SDS011;57598;50.888;4.746;2023-04-25T10:46:13;19.00;;;17.60;;
21569;SDS011;57598;50.888;4.746;2023-04-25T10:48:45;18.63;;;17.50;;
21569;SDS011;57598;50.888;4.746;2023-04-25T10:51:18;20.42;;;18.38;;
21569;SDS011;57598;50.888;4.746;2023-04-25T10:53:47;18.75;;;17.65;;
21569;SDS011;57598;50.888;4.746;2023-04-25T10:56:26;19.17;;;18.08;;
21569;SDS011;57598;50.888;4.746;2023-04-25T10:59:04;20.15;;;19.02;;
21569;SDS011;57598;50.888;4.746;2023-04-25T11:01:37;18.80;;;17.70;;
21569;SDS011;57598;50.888;4.746;2023-04-25T11:04:06;20.00;;;18.70;;
21569;SDS011;57598;50.888;4.746;2023-04-25T11:06:46;19.27;;;18.17;;
21569;SDS011;57598;50.888;4.746;2023-04-25T11:09:32;18.42;;;17.33;;
21569;SDS011;57598;50.888;4.746;2023-04-25T11:12:01;19.27;;;18.17;;
21569;SDS011;57598;50.888;4.746;2023-04-25T11:14:28;20.00;;;18.48;;
21569;SDS011;57598;50.888;4.746;2023-04-25T11:16:55;19.75;;;18.65;;
21569;SDS011;57598;50.888;4.746;2023-04-25T11:19:23;18.80;;;17.70;;
21569;SDS011;57598;50.888;4.746;2023-04-25T11:21:51;20.42;;;19.05;;
21569;SDS011;57598;50.888;4.746;2023-04-25T11:24:25;19.83;;;18.63;;
21569;SDS011;57598;50.888;4.746;2023-04-25T11:29:22;21.35;;;19.63;;
21569;SDS011;57598;50.888;4.746;2023-04-25T11:31:50;19.48;;;18.00;;
21569;SDS011;57598;50.888;4.746;2023-04-25T11:34:17;19.15;;;17.85;;
21569;SDS011;57598;50.888;4.746;2023-04-25T11:36:44;18.17;;;17.17;;
21569;SDS011;57598;50.888;4.746;2023-04-25T11:39:12;19.70;;;18.40;;
21569;SDS011;57598;50.888;4.746;2023-04-25T11:41:40;19.55;;;18.15;;
21569;SDS011;57598;50.888;4.746;2023-04-25T11:44:08;19.50;;;18.25;;
21569;SDS011;57598;50.888;4.746;2023-04-25T11:46:36;19.52;;;18.23;;
21569;SDS011;57598;50.888;4.746;2023-04-25T11:49:03;19.90;;;18.25;;
21569;SDS011;57598;50.888;4.746;2023-04-25T11:51:37;19.15;;;17.95;;
21569;SDS011;57598;50.888;4.746;2023-04-25T11:54:05;20.48;;;18.77;;
21569;SDS011;57598;50.888;4.746;2023-04-25T11:56:33;19.33;;;17.75;;
21569;SDS011;57598;50.888;4.746;2023-04-25T11:59:00;20.58;;;18.73;;
21569;SDS011;57598;50.888;4.746;2023-04-25T12:01:28;20.25;;;18.55;;
21569;SDS011;57598;50.888;4.746;2023-04-25T12:03:57;18.50;;;17.40;;
21569;SDS011;57598;50.888;4.746;2023-04-25T12:06:36;17.85;;;16.85;;
21569;SDS011;57598;50.888;4.746;2023-04-25T12:09:07;18.90;;;17.80;;
21569;SDS011;57598;50.888;4.746;2023-04-25T12:11:40;18.03;;;17.00;;
21569;SDS011;57598;50.888;4.746;2023-04-25T12:14:07;19.50;;;18.13;;
21569;SDS011;57598;50.888;4.746;2023-04-25T12:16:41;17.90;;;16.90;;
21569;SDS011;57598;50.888;4.746;2023-04-25T12:19:13;18.02;;;16.95;;
21569;SDS011;57598;50.888;4.746;2023-04-25T12:21:40;17.55;;;16.55;;
21569;SDS011;57598;50.888;4.746;2023-04-25T12:24:09;18.67;;;17.58;;
21569;SDS011;57598;50.888;4.746;2023-04-25T12:26:47;19.50;;;18.40;;
21569;SDS011;57598;50.888;4.746;2023-04-25T12:29:18;19.93;;;18.63;;
21569;SDS011;57598;50.888;4.746;2023-04-25T12:31:46;18.83;;;17.73;;
21569;SDS011;57598;50.888;4.746;2023-04-25T12:34:15;20.90;;;19.20;;
21569;SDS011;57598;50.888;4.746;2023-04-25T12:36:42;20.65;;;18.92;;
21569;SDS011;57598;50.888;4.746;2023-04-25T12:39:13;19.65;;;18.45;;
21569;SDS011;57598;50.888;4.746;2023-04-25T12:41:41;19.25;;;18.15;;
21569;SDS011;57598;50.888;4.746;2023-04-25T12:44:08;21.30;;;19.88;;
21569;SDS011;57598;50.888;4.746;2023-04-25T12:46:35;20.20;;;19.00;;
21569;SDS011;57598;50.888;4.746;2023-04-25T12:49:03;19.88;;;18.33;;
21569;SDS011;57598;50.888;4.746;2023-04-25T12:51:32;19.67;;;18.35;;
21569;SDS011;57598;50.888;4.746;2023-04-25T12:53:59;19.25;;;18.15;;
21569;SDS011;57598;50.888;4.746;2023-04-25T12:56:26;20.20;;;19.00;;
21569;SDS011;57598;50.888;4.746;2023-04-25T12:58:54;19.67;;;18.58;;
21569;SDS011;57598;50.888;4.746;2023-04-25T13:01:21;19.95;;;18.80;;
21569;SDS011;57598;50.888;4.746;2023-04-25T13:03:48;18.80;;;17.70;;
21569;SDS011;57598;50.888;4.746;2023-04-25T13:06:15;20.88;;;18.95;;
21569;SDS011;57598;50.888;4.746;2023-04-25T13:08:43;18.63;;;17.52;;
21569;SDS011;57598;50.888;4.746;2023-04-25T13:11:10;17.38;;;16.38;;
21569;SDS011;57598;50.888;4.746;2023-04-25T13:13:39;19.60;;;18.50;;
21569;SDS011;57598;50.888;4.746;2023-04-25T13:16:07;19.73;;;18.63;;
21569;SDS011;57598;50.888;4.746;2023-04-25T13:18:34;18.67;;;17.58;;
21569;SDS011;57598;50.888;4.746;2023-04-25T13:21:03;18.15;;;17.15;;
21569;SDS011;57598;50.888;4.746;2023-04-25T13:23:29;18.95;;;17.83;;
21569;SDS011;57598;50.888;4.746;2023-04-25T13:25:58;18.02;;;17.02;;
21569;SDS011;57598;50.888;4.746;2023-04-25T13:28:26;19.70;;;18.60;;
21569;SDS011;57598;50.888;4.746;2023-04-25T13:30:53;19.55;;;18.35;;
21569;SDS011;57598;50.888;4.746;2023-04-25T13:33:20;19.95;;;18.42;;
21569;SDS011;57598;50.888;4.746;2023-04-25T13:35:48;20.33;;;18.77;;
21569;SDS011;57598;50.888;4.746;2023-04-25T13:38:19;19.55;;;18.45;;
21569;SDS011;57598;50.888;4.746;2023-04-25T13:40:47;18.75;;;17.65;;
21569;SDS011;57598;50.888;4.746;2023-04-25T13:43:16;18.75;;;17.65;;
21569;SDS011;57598;50.888;4.746;2023-04-25T13:45:43;19.77;;;18.50;;
21569;SDS011;57598;50.888;4.746;2023-04-25T13:48:11;17.85;;;16.80;;
21569;SDS011;57598;50.888;4.746;2023-04-25T13:50:37;18.85;;;17.70;;
21569;SDS011;57598;50.888;4.746;2023-04-25T13:53:04;20.08;;;18.40;;
21569;SDS011;57598;50.888;4.746;2023-04-25T13:55:32;18.20;;;17.00;;
21569;SDS011;57598;50.888;4.746;2023-04-25T13:58:00;19.33;;;18.23;;
21569;SDS011;57598;50.888;4.746;2023-04-25T14:00:33;19.48;;;18.27;;
21569;SDS011;57598;50.888;4.746;2023-04-25T14:03:03;19.30;;;18.20;;
21569;SDS011;57598;50.888;4.746;2023-04-25T14:05:32;17.63;;;16.63;;
21569;SDS011;57598;50.888;4.746;2023-04-25T14:08:03;18.88;;;17.52;;
21569;SDS011;57598;50.888;4.746;2023-04-25T14:10:31;18.85;;;17.55;;
21569;SDS011;57598;50.888;4.746;2023-04-25T14:12:58;17.83;;;16.83;;
21569;SDS011;57598;50.888;4.746;2023-04-25T14:15:25;17.80;;;16.80;;
21569;SDS011;57598;50.888;4.746;2023-04-25T14:17:54;19.63;;;18.40;;
21569;SDS011;57598;50.888;4.746;2023-04-25T14:20:21;18.83;;;17.73;;
21569;SDS011;57598;50.888;4.746;2023-04-25T14:22:49;19.45;;;18.15;;
21569;SDS011;57598;50.888;4.746;2023-04-25T14:25:17;18.73;;;17.63;;
21569;SDS011;57598;50.888;4.746;2023-04-25T14:27:44;18.90;;;17.77;;
21569;SDS011;57598;50.888;4.746;2023-04-25T14:30:14;19.17;;;18.07;;
21569;SDS011;57598;50.888;4.746;2023-04-25T14:32:42;18.17;;;17.17;;
21569;SDS011;57598;50.888;4.746;2023-04-25T14:35:10;17.50;;;16.50;;
21569;SDS011;57598;50.888;4.746;2023-04-25T14:37:38;17.42;;;16.42;;
21569;SDS011;57598;50.888;4.746;2023-04-25T14:40:06;19.10;;;18.00;;
21569;SDS011;57598;50.888;4.746;2023-04-25T14:42:35;18.67;;;17.58;;
21569;SDS011;57598;50.888;4.746;2023-04-25T14:45:02;18.40;;;17.30;;
21569;SDS011;57598;50.888;4.746;2023-04-25T14:47:30;18.98;;;17.88;;
21569;SDS011;57598;50.888;4.746;2023-04-25T14:49:57;19.25;;;17.95;;
21569;SDS011;57598;50.888;4.746;2023-04-25T14:52:25;19.17;;;18.08;;
21569;SDS011;57598;50.888;4.746;2023-04-25T14:54:52;21.10;;;19.73;;
21569;SDS011;57598;50.888;4.746;2023-04-25T14:57:19;18.75;;;17.65;;
21569;SDS011;57598;50.888;4.746;2023-04-25T14:59:46;19.52;;;18.42;;
21569;SDS011;57598;50.888;4.746;2023-04-25T15:02:13;18.40;;;17.30;;
21569;SDS011;57598;50.888;4.746;2023-04-25T15:04:40;21.80;;;19.60;;
21569;SDS011;57598;50.888;4.746;2023-04-25T15:07:08;19.10;;;18.00;;
21569;SDS011;57598;50.888;4.746;2023-04-25T15:09:36;39.13;;;21.75;;
21569;SDS011;57598;50.888;4.746;2023-04-25T15:12:03;20.60;;;19.25;;
21569;SDS011;57598;50.888;4.746;2023-04-25T15:14:30;20.60;;;19.10;;
21569;SDS011;57598;50.888;4.746;2023-04-25T15:16:58;19.52;;;18.42;;
21569;SDS011;57598;50.888;4.746;2023-04-25T15:19:26;22.08;;;20.42;;
21569;SDS011;57598;50.888;4.746;2023-04-25T15:21:53;19.52;;;18.42;;
21569;SDS011;57598;50.888;4.746;2023-04-25T15:24:20;18.92;;;17.83;;
21569;SDS011;57598;50.888;4.746;2023-04-25T15:26:48;21.05;;;19.75;;
21569;SDS011;57598;50.888;4.746;2023-04-25T15:29:16;18.77;;;17.65;;
21569;SDS011;57598;50.888;4.746;2023-04-25T15:31:44;21.23;;;19.55;;
21569;SDS011;57598;50.888;4.746;2023-04-25T15:34:11;18.40;;;17.13;;
21569;SDS011;57598;50.888;4.746;2023-04-25T15:36:38;19.25;;;17.95;;
21569;SDS011;57598;50.888;4.746;2023-04-25T15:39:05;18.88;;;17.50;;
21569;SDS011;57598;50.888;4.746;2023-04-25T15:41:32;17.92;;;16.92;;
21569;SDS011;57598;50.888;4.746;2023-04-25T15:44:00;18.20;;;17.10;;
21569;SDS011;57598;50.888;4.746;2023-04-25T15:46:27;17.90;;;16.90;;
21569;SDS011;57598;50.888;4.746;2023-04-25T15:48:56;17.50;;;16.50;;
21569;SDS011;57598;50.888;4.746;2023-04-25T15:51:22;17.70;;;16.60;;
21569;SDS011;57598;50.888;4.746;2023-04-25T15:53:50;19.33;;;18.23;;
21569;SDS011;57598;50.888;4.746;2023-04-25T15:56:17;27.73;;;18.75;;